sensor_id;sensor_type;location;lat;lon;timestamp;P1;durP1;ratioP1;P2;durP2;ratioP2
23117;SDS011;11728;50.624;6.014;2023-05-07T00:02:06;7.20;;;1.88;;
23117;SDS011;11728;50.624;6.014;2023-05-07T00:07:27;3.63;;;1.70;;
23117;SDS011;11728;50.624;6.014;2023-05-07T00:12:48;5.60;;;1.80;;
23117;SDS011;11728;50.624;6.014;2023-05-07T00:18:09;4.97;;;1.40;;
23117;SDS011;11728;50.624;6.014;2023-05-07T00:23:30;4.55;;;1.70;;
23117;SDS011;11728;50.624;6.014;2023-05-07T00:28:51;4.60;;;1.50;;
23117;SDS011;11728;50.624;6.014;2023-05-07T00:34:11;7.45;;;1.58;;
23117;SDS011;11728;50.624;6.014;2023-05-07T00:39:32;3.97;;;1.20;;
23117;SDS011;11728;50.624;6.014;2023-05-07T00:44:54;2.95;;;1.40;;
23117;SDS011;11728;50.624;6.014;2023-05-07T00:50:15;5.68;;;1.55;;
23117;SDS011;11728;50.624;6.014;2023-05-07T00:55:37;3.40;;;1.40;;
23117;SDS011;11728;50.624;6.014;2023-05-07T01:00:58;2.92;;;1.60;;
23117;SDS011;11728;50.624;6.014;2023-05-07T01:06:20;4.57;;;1.60;;
23117;SDS011;11728;50.624;6.014;2023-05-07T01:11:43;2.38;;;1.17;;
23117;SDS011;11728;50.624;6.014;2023-05-07T01:17:04;5.50;;;1.42;;
23117;SDS011;11728;50.624;6.014;2023-05-07T01:22:35;3.42;;;1.45;;
23117;SDS011;11728;50.624;6.014;2023-05-07T01:27:57;3.92;;;1.10;;
23117;SDS011;11728;50.624;6.014;2023-05-07T01:33:20;2.95;;;1.00;;
23117;SDS011;11728;50.624;6.014;2023-05-07T01:38:42;4.18;;;1.30;;
23117;SDS011;11728;50.624;6.014;2023-05-07T01:44:03;6.40;;;1.50;;
23117;SDS011;11728;50.624;6.014;2023-05-07T01:49:26;2.33;;;1.20;;
23117;SDS011;11728;50.624;6.014;2023-05-07T01:54:47;3.33;;;1.55;;
23117;SDS011;11728;50.624;6.014;2023-05-07T02:00:08;3.25;;;1.00;;
23117;SDS011;11728;50.624;6.014;2023-05-07T02:05:29;2.47;;;1.02;;
23117;SDS011;11728;50.624;6.014;2023-05-07T02:10:50;5.00;;;1.55;;
23117;SDS011;11728;50.624;6.014;2023-05-07T02:16:11;4.68;;;1.30;;
23117;SDS011;11728;50.624;6.014;2023-05-07T02:21:34;3.70;;;1.00;;
23117;SDS011;11728;50.624;6.014;2023-05-07T02:26:55;4.35;;;1.48;;
23117;SDS011;11728;50.624;6.014;2023-05-07T02:32:16;2.25;;;1.08;;
23117;SDS011;11728;50.624;6.014;2023-05-07T02:37:36;2.08;;;1.08;;
23117;SDS011;11728;50.624;6.014;2023-05-07T02:42:57;2.72;;;1.05;;
23117;SDS011;11728;50.624;6.014;2023-05-07T02:48:18;3.30;;;1.15;;
23117;SDS011;11728;50.624;6.014;2023-05-07T02:53:38;2.03;;;0.95;;
23117;SDS011;11728;50.624;6.014;2023-05-07T02:58:59;2.55;;;1.20;;
23117;SDS011;11728;50.624;6.014;2023-05-07T03:04:20;1.83;;;1.00;;
23117;SDS011;11728;50.624;6.014;2023-05-07T03:09:41;2.83;;;1.02;;
23117;SDS011;11728;50.624;6.014;2023-05-07T03:15:02;3.20;;;1.10;;
23117;SDS011;11728;50.624;6.014;2023-05-07T03:20:23;4.15;;;1.00;;
23117;SDS011;11728;50.624;6.014;2023-05-07T03:25:43;2.78;;;0.98;;
23117;SDS011;11728;50.624;6.014;2023-05-07T03:31:04;2.83;;;0.90;;
23117;SDS011;11728;50.624;6.014;2023-05-07T03:36:25;3.95;;;1.00;;
23117;SDS011;11728;50.624;6.014;2023-05-07T03:41:47;2.65;;;1.05;;
23117;SDS011;11728;50.624;6.014;2023-05-07T03:47:08;3.05;;;0.85;;
23117;SDS011;11728;50.624;6.014;2023-05-07T03:52:30;2.85;;;1.00;;
23117;SDS011;11728;50.624;6.014;2023-05-07T03:57:51;3.45;;;1.42;;
23117;SDS011;11728;50.624;6.014;2023-05-07T04:03:11;2.97;;;1.00;;
23117;SDS011;11728;50.624;6.014;2023-05-07T04:08:32;2.88;;;0.95;;
23117;SDS011;11728;50.624;6.014;2023-05-07T04:13:53;2.08;;;0.93;;
23117;SDS011;11728;50.624;6.014;2023-05-07T04:19:14;2.88;;;0.90;;
23117;SDS011;11728;50.624;6.014;2023-05-07T04:24:34;2.13;;;1.13;;
23117;SDS011;11728;50.624;6.014;2023-05-07T04:29:55;2.00;;;1.10;;
23117;SDS011;11728;50.624;6.014;2023-05-07T04:35:16;2.17;;;1.20;;
23117;SDS011;11728;50.624;6.014;2023-05-07T04:40:37;2.03;;;0.90;;
23117;SDS011;11728;50.624;6.014;2023-05-07T04:45:59;2.60;;;0.90;;
23117;SDS011;11728;50.624;6.014;2023-05-07T04:51:20;2.65;;;1.05;;
23117;SDS011;11728;50.624;6.014;2023-05-07T04:56:41;2.20;;;1.10;;
23117;SDS011;11728;50.624;6.014;2023-05-07T05:02:02;3.67;;;1.35;;
23117;SDS011;11728;50.624;6.014;2023-05-07T05:07:24;2.85;;;0.90;;
23117;SDS011;11728;50.624;6.014;2023-05-07T05:12:45;3.70;;;0.90;;
23117;SDS011;11728;50.624;6.014;2023-05-07T05:18:05;2.28;;;1.23;;
23117;SDS011;11728;50.624;6.014;2023-05-07T05:23:26;2.25;;;0.80;;
23117;SDS011;11728;50.624;6.014;2023-05-07T05:28:47;3.38;;;1.27;;
23117;SDS011;11728;50.624;6.014;2023-05-07T05:34:08;3.00;;;1.15;;
23117;SDS011;11728;50.624;6.014;2023-05-07T05:39:29;1.67;;;0.90;;
23117;SDS011;11728;50.624;6.014;2023-05-07T05:44:49;3.45;;;1.42;;
23117;SDS011;11728;50.624;6.014;2023-05-07T05:50:10;2.42;;;1.10;;
23117;SDS011;11728;50.624;6.014;2023-05-07T05:55:31;8.07;;;1.42;;
23117;SDS011;11728;50.624;6.014;2023-05-07T06:00:52;4.10;;;1.30;;
23117;SDS011;11728;50.624;6.014;2023-05-07T06:06:13;4.07;;;1.63;;
23117;SDS011;11728;50.624;6.014;2023-05-07T06:11:34;4.78;;;1.83;;
23117;SDS011;11728;50.624;6.014;2023-05-07T06:16:55;3.67;;;1.55;;
23117;SDS011;11728;50.624;6.014;2023-05-07T06:22:17;3.05;;;1.65;;
23117;SDS011;11728;50.624;6.014;2023-05-07T06:27:37;3.75;;;1.50;;
23117;SDS011;11728;50.624;6.014;2023-05-07T06:32:59;1.85;;;1.20;;
23117;SDS011;11728;50.624;6.014;2023-05-07T06:38:20;2.03;;;0.90;;
23117;SDS011;11728;50.624;6.014;2023-05-07T06:43:41;6.03;;;1.83;;
23117;SDS011;11728;50.624;6.014;2023-05-07T06:49:02;3.15;;;1.48;;
23117;SDS011;11728;50.624;6.014;2023-05-07T06:54:23;5.50;;;1.73;;
23117;SDS011;11728;50.624;6.014;2023-05-07T06:59:43;2.92;;;1.35;;
23117;SDS011;11728;50.624;6.014;2023-05-07T07:05:04;2.28;;;1.23;;
23117;SDS011;11728;50.624;6.014;2023-05-07T07:10:26;2.63;;;1.00;;
23117;SDS011;11728;50.624;6.014;2023-05-07T07:15:46;2.22;;;0.98;;
23117;SDS011;11728;50.624;6.014;2023-05-07T07:21:07;2.80;;;1.20;;
23117;SDS011;11728;50.624;6.014;2023-05-07T07:26:28;3.30;;;1.35;;
23117;SDS011;11728;50.624;6.014;2023-05-07T07:31:49;1.77;;;1.00;;
23117;SDS011;11728;50.624;6.014;2023-05-07T07:37:10;5.45;;;1.20;;
23117;SDS011;11728;50.624;6.014;2023-05-07T07:42:31;2.58;;;1.13;;
23117;SDS011;11728;50.624;6.014;2023-05-07T07:47:52;1.92;;;0.95;;
23117;SDS011;11728;50.624;6.014;2023-05-07T07:53:12;2.10;;;1.20;;
23117;SDS011;11728;50.624;6.014;2023-05-07T07:58:33;1.85;;;1.10;;
23117;SDS011;11728;50.624;6.014;2023-05-07T08:03:55;1.95;;;1.10;;
23117;SDS011;11728;50.624;6.014;2023-05-07T08:09:18;2.03;;;1.00;;
23117;SDS011;11728;50.624;6.014;2023-05-07T08:14:39;4.25;;;1.42;;
23117;SDS011;11728;50.624;6.014;2023-05-07T08:20:00;2.13;;;1.17;;
23117;SDS011;11728;50.624;6.014;2023-05-07T08:25:21;4.18;;;1.50;;
23117;SDS011;11728;50.624;6.014;2023-05-07T08:30:42;2.50;;;1.10;;
23117;SDS011;11728;50.624;6.014;2023-05-07T08:36:03;2.97;;;1.30;;
23117;SDS011;11728;50.624;6.014;2023-05-07T08:41:24;4.15;;;1.70;;
23117;SDS011;11728;50.624;6.014;2023-05-07T08:46:45;3.15;;;1.25;;
23117;SDS011;11728;50.624;6.014;2023-05-07T08:52:08;1.73;;;0.88;;
23117;SDS011;11728;50.624;6.014;2023-05-07T08:57:29;2.92;;;1.30;;
23117;SDS011;11728;50.624;6.014;2023-05-07T09:02:50;2.97;;;1.40;;
23117;SDS011;11728;50.624;6.014;2023-05-07T09:08:14;3.15;;;1.20;;
23117;SDS011;11728;50.624;6.014;2023-05-07T09:13:35;4.15;;;1.30;;
23117;SDS011;11728;50.624;6.014;2023-05-07T09:18:57;5.18;;;1.40;;
23117;SDS011;11728;50.624;6.014;2023-05-07T09:24:18;2.70;;;1.30;;
23117;SDS011;11728;50.624;6.014;2023-05-07T09:29:39;2.95;;;1.55;;
23117;SDS011;11728;50.624;6.014;2023-05-07T09:35:01;2.67;;;1.30;;
23117;SDS011;11728;50.624;6.014;2023-05-07T09:40:24;4.20;;;2.00;;
23117;SDS011;11728;50.624;6.014;2023-05-07T09:45:46;5.45;;;2.28;;
23117;SDS011;11728;50.624;6.014;2023-05-07T09:51:15;3.95;;;1.95;;
23117;SDS011;11728;50.624;6.014;2023-05-07T09:56:43;5.05;;;1.65;;
23117;SDS011;11728;50.624;6.014;2023-05-07T10:02:05;3.03;;;1.67;;
23117;SDS011;11728;50.624;6.014;2023-05-07T10:07:26;5.13;;;1.98;;
23117;SDS011;11728;50.624;6.014;2023-05-07T10:12:48;5.90;;;1.83;;
23117;SDS011;11728;50.624;6.014;2023-05-07T10:18:10;4.65;;;1.73;;
23117;SDS011;11728;50.624;6.014;2023-05-07T10:23:32;3.83;;;2.00;;
23117;SDS011;11728;50.624;6.014;2023-05-07T10:28:58;4.38;;;1.80;;
23117;SDS011;11728;50.624;6.014;2023-05-07T10:39:50;3.50;;;2.20;;
23117;SDS011;11728;50.624;6.014;2023-05-07T10:45:13;4.20;;;2.38;;
23117;SDS011;11728;50.624;6.014;2023-05-07T10:50:42;5.07;;;2.10;;
23117;SDS011;11728;50.624;6.014;2023-05-07T11:01:56;6.03;;;2.47;;
23117;SDS011;11728;50.624;6.014;2023-05-07T11:07:25;3.65;;;1.90;;
23117;SDS011;11728;50.624;6.014;2023-05-07T11:12:50;3.88;;;2.20;;
23117;SDS011;11728;50.624;6.014;2023-05-07T11:18:15;5.20;;;2.70;;
23117;SDS011;11728;50.624;6.014;2023-05-07T11:28:59;6.72;;;2.10;;
23117;SDS011;11728;50.624;6.014;2023-05-07T11:34:21;4.63;;;2.22;;
23117;SDS011;11728;50.624;6.014;2023-05-07T11:39:43;7.25;;;2.70;;
23117;SDS011;11728;50.624;6.014;2023-05-07T11:45:05;9.13;;;4.20;;
23117;SDS011;11728;50.624;6.014;2023-05-07T11:50:27;10.85;;;5.78;;
23117;SDS011;11728;50.624;6.014;2023-05-07T11:55:48;8.00;;;4.30;;
23117;SDS011;11728;50.624;6.014;2023-05-07T12:01:13;8.18;;;4.53;;
23117;SDS011;11728;50.624;6.014;2023-05-07T12:06:35;10.20;;;5.10;;
23117;SDS011;11728;50.624;6.014;2023-05-07T12:12:02;11.43;;;5.13;;
23117;SDS011;11728;50.624;6.014;2023-05-07T12:17:24;7.95;;;4.85;;
23117;SDS011;11728;50.624;6.014;2023-05-07T12:22:45;7.68;;;5.10;;
23117;SDS011;11728;50.624;6.014;2023-05-07T12:28:07;11.10;;;5.75;;
23117;SDS011;11728;50.624;6.014;2023-05-07T12:33:28;9.25;;;5.80;;
23117;SDS011;11728;50.624;6.014;2023-05-07T12:38:49;11.93;;;6.35;;
23117;SDS011;11728;50.624;6.014;2023-05-07T12:44:10;12.70;;;6.13;;
23117;SDS011;11728;50.624;6.014;2023-05-07T12:49:30;16.00;;;6.45;;
23117;SDS011;11728;50.624;6.014;2023-05-07T12:54:51;10.70;;;6.78;;
23117;SDS011;11728;50.624;6.014;2023-05-07T13:00:12;13.35;;;7.15;;
23117;SDS011;11728;50.624;6.014;2023-05-07T13:05:34;13.65;;;6.00;;
23117;SDS011;11728;50.624;6.014;2023-05-07T13:10:55;13.05;;;6.68;;
23117;SDS011;11728;50.624;6.014;2023-05-07T13:16:17;11.40;;;5.72;;
23117;SDS011;11728;50.624;6.014;2023-05-07T13:21:37;10.07;;;5.60;;
23117;SDS011;11728;50.624;6.014;2023-05-07T13:26:58;12.52;;;5.75;;
23117;SDS011;11728;50.624;6.014;2023-05-07T13:32:19;11.55;;;5.78;;
23117;SDS011;11728;50.624;6.014;2023-05-07T13:37:40;9.90;;;5.85;;
23117;SDS011;11728;50.624;6.014;2023-05-07T13:43:00;9.55;;;5.15;;
23117;SDS011;11728;50.624;6.014;2023-05-07T13:48:24;9.55;;;5.13;;
23117;SDS011;11728;50.624;6.014;2023-05-07T13:53:45;11.73;;;5.35;;
23117;SDS011;11728;50.624;6.014;2023-05-07T13:59:05;11.68;;;5.45;;
23117;SDS011;11728;50.624;6.014;2023-05-07T14:04:26;10.63;;;5.50;;
23117;SDS011;11728;50.624;6.014;2023-05-07T14:09:47;7.30;;;4.78;;
23117;SDS011;11728;50.624;6.014;2023-05-07T14:15:08;9.35;;;4.60;;
23117;SDS011;11728;50.624;6.014;2023-05-07T14:20:29;10.50;;;4.90;;
23117;SDS011;11728;50.624;6.014;2023-05-07T14:25:51;10.38;;;4.95;;
23117;SDS011;11728;50.624;6.014;2023-05-07T14:31:15;8.13;;;4.20;;
23117;SDS011;11728;50.624;6.014;2023-05-07T14:36:35;7.80;;;4.13;;
23117;SDS011;11728;50.624;6.014;2023-05-07T14:41:57;11.13;;;5.28;;
23117;SDS011;11728;50.624;6.014;2023-05-07T14:47:17;13.35;;;4.97;;
23117;SDS011;11728;50.624;6.014;2023-05-07T14:52:38;9.30;;;4.10;;
23117;SDS011;11728;50.624;6.014;2023-05-07T14:57:59;7.95;;;3.40;;
23117;SDS011;11728;50.624;6.014;2023-05-07T15:03:20;7.60;;;3.30;;
23117;SDS011;11728;50.624;6.014;2023-05-07T15:08:42;9.25;;;3.42;;
23117;SDS011;11728;50.624;6.014;2023-05-07T15:14:02;6.75;;;3.20;;
23117;SDS011;11728;50.624;6.014;2023-05-07T15:19:23;7.47;;;3.63;;
23117;SDS011;11728;50.624;6.014;2023-05-07T15:24:49;6.50;;;3.50;;
23117;SDS011;11728;50.624;6.014;2023-05-07T15:30:10;9.77;;;3.45;;
23117;SDS011;11728;50.624;6.014;2023-05-07T15:35:31;8.90;;;3.70;;
23117;SDS011;11728;50.624;6.014;2023-05-07T15:40:52;9.38;;;3.83;;
23117;SDS011;11728;50.624;6.014;2023-05-07T15:46:16;12.15;;;4.32;;
23117;SDS011;11728;50.624;6.014;2023-05-07T15:51:38;8.77;;;3.80;;
23117;SDS011;11728;50.624;6.014;2023-05-07T15:56:59;6.40;;;4.47;;
23117;SDS011;11728;50.624;6.014;2023-05-07T16:02:21;10.35;;;4.22;;
23117;SDS011;11728;50.624;6.014;2023-05-07T16:07:42;12.90;;;4.20;;
23117;SDS011;11728;50.624;6.014;2023-05-07T16:13:03;9.57;;;4.10;;
23117;SDS011;11728;50.624;6.014;2023-05-07T16:18:24;10.40;;;4.70;;
23117;SDS011;11728;50.624;6.014;2023-05-07T16:23:45;8.75;;;4.78;;
23117;SDS011;11728;50.624;6.014;2023-05-07T16:29:06;14.57;;;3.75;;
23117;SDS011;11728;50.624;6.014;2023-05-07T16:34:27;10.18;;;4.45;;
23117;SDS011;11728;50.624;6.014;2023-05-07T16:39:47;7.68;;;3.95;;
23117;SDS011;11728;50.624;6.014;2023-05-07T16:45:09;11.07;;;4.32;;
23117;SDS011;11728;50.624;6.014;2023-05-07T16:50:30;9.80;;;4.32;;
23117;SDS011;11728;50.624;6.014;2023-05-07T16:55:51;7.72;;;3.83;;
23117;SDS011;11728;50.624;6.014;2023-05-07T17:01:15;6.68;;;4.30;;
23117;SDS011;11728;50.624;6.014;2023-05-07T17:06:38;7.18;;;3.85;;
23117;SDS011;11728;50.624;6.014;2023-05-07T17:11:58;11.38;;;4.38;;
23117;SDS011;11728;50.624;6.014;2023-05-07T17:17:19;9.55;;;4.07;;
23117;SDS011;11728;50.624;6.014;2023-05-07T17:22:40;7.93;;;4.45;;
23117;SDS011;11728;50.624;6.014;2023-05-07T17:28:01;10.88;;;4.60;;
23117;SDS011;11728;50.624;6.014;2023-05-07T17:33:22;15.20;;;5.13;;
23117;SDS011;11728;50.624;6.014;2023-05-07T17:38:43;7.88;;;4.47;;
23117;SDS011;11728;50.624;6.014;2023-05-07T17:44:03;14.50;;;4.97;;
23117;SDS011;11728;50.624;6.014;2023-05-07T17:49:24;11.70;;;5.10;;
23117;SDS011;11728;50.624;6.014;2023-05-07T17:54:45;11.02;;;4.90;;
23117;SDS011;11728;50.624;6.014;2023-05-07T18:00:06;10.23;;;4.53;;
23117;SDS011;11728;50.624;6.014;2023-05-07T18:05:28;12.55;;;5.10;;
23117;SDS011;11728;50.624;6.014;2023-05-07T18:10:49;9.15;;;5.10;;
23117;SDS011;11728;50.624;6.014;2023-05-07T18:16:10;9.95;;;4.70;;
23117;SDS011;11728;50.624;6.014;2023-05-07T18:21:30;10.52;;;5.05;;
23117;SDS011;11728;50.624;6.014;2023-05-07T18:26:51;13.70;;;4.40;;
23117;SDS011;11728;50.624;6.014;2023-05-07T18:32:12;10.35;;;6.10;;
23117;SDS011;11728;50.624;6.014;2023-05-07T18:37:33;10.07;;;6.28;;
23117;SDS011;11728;50.624;6.014;2023-05-07T18:42:54;13.15;;;7.38;;
23117;SDS011;11728;50.624;6.014;2023-05-07T18:48:15;11.65;;;6.65;;
23117;SDS011;11728;50.624;6.014;2023-05-07T18:53:36;10.85;;;5.63;;
23117;SDS011;11728;50.624;6.014;2023-05-07T18:58:58;13.50;;;6.18;;
23117;SDS011;11728;50.624;6.014;2023-05-07T19:04:19;11.25;;;6.00;;
23117;SDS011;11728;50.624;6.014;2023-05-07T19:09:40;11.90;;;6.32;;
23117;SDS011;11728;50.624;6.014;2023-05-07T19:15:01;9.95;;;6.20;;
23117;SDS011;11728;50.624;6.014;2023-05-07T19:20:21;12.38;;;6.88;;
23117;SDS011;11728;50.624;6.014;2023-05-07T19:25:42;9.90;;;4.63;;
23117;SDS011;11728;50.624;6.014;2023-05-07T19:31:03;9.75;;;5.72;;
23117;SDS011;11728;50.624;6.014;2023-05-07T19:36:24;8.52;;;5.15;;
23117;SDS011;11728;50.624;6.014;2023-05-07T19:41:45;11.90;;;6.15;;
23117;SDS011;11728;50.624;6.014;2023-05-07T19:47:06;9.52;;;6.22;;
23117;SDS011;11728;50.624;6.014;2023-05-07T19:52:28;11.10;;;6.20;;
23117;SDS011;11728;50.624;6.014;2023-05-07T19:57:49;8.55;;;5.18;;
23117;SDS011;11728;50.624;6.014;2023-05-07T20:03:10;12.02;;;6.22;;
23117;SDS011;11728;50.624;6.014;2023-05-07T20:08:37;8.13;;;5.50;;
23117;SDS011;11728;50.624;6.014;2023-05-07T20:13:58;10.77;;;6.30;;
23117;SDS011;11728;50.624;6.014;2023-05-07T20:19:19;10.13;;;6.53;;
23117;SDS011;11728;50.624;6.014;2023-05-07T20:24:39;13.75;;;8.18;;
23117;SDS011;11728;50.624;6.014;2023-05-07T20:30:00;13.05;;;5.95;;
23117;SDS011;11728;50.624;6.014;2023-05-07T20:35:21;10.88;;;6.90;;
23117;SDS011;11728;50.624;6.014;2023-05-07T20:40:42;11.25;;;7.28;;
23117;SDS011;11728;50.624;6.014;2023-05-07T20:46:03;13.32;;;7.97;;
23117;SDS011;11728;50.624;6.014;2023-05-07T20:51:24;11.10;;;7.95;;
23117;SDS011;11728;50.624;6.014;2023-05-07T20:56:46;11.55;;;8.02;;
23117;SDS011;11728;50.624;6.014;2023-05-07T21:02:07;10.73;;;7.57;;
23117;SDS011;11728;50.624;6.014;2023-05-07T21:07:28;13.65;;;7.93;;
23117;SDS011;11728;50.624;6.014;2023-05-07T21:12:49;11.13;;;6.57;;
23117;SDS011;11728;50.624;6.014;2023-05-07T21:18:10;10.85;;;7.95;;
23117;SDS011;11728;50.624;6.014;2023-05-07T21:23:31;13.68;;;7.90;;
23117;SDS011;11728;50.624;6.014;2023-05-07T21:28:52;11.48;;;7.53;;
23117;SDS011;11728;50.624;6.014;2023-05-07T21:34:13;10.27;;;7.40;;
23117;SDS011;11728;50.624;6.014;2023-05-07T21:39:34;10.90;;;8.00;;
23117;SDS011;11728;50.624;6.014;2023-05-07T21:44:54;12.27;;;8.40;;
23117;SDS011;11728;50.624;6.014;2023-05-07T21:50:15;13.23;;;8.80;;
23117;SDS011;11728;50.624;6.014;2023-05-07T21:55:36;14.57;;;9.27;;
23117;SDS011;11728;50.624;6.014;2023-05-07T22:00:57;13.23;;;9.48;;
23117;SDS011;11728;50.624;6.014;2023-05-07T22:06:19;15.35;;;9.63;;
23117;SDS011;11728;50.624;6.014;2023-05-07T22:11:41;13.70;;;8.68;;
23117;SDS011;11728;50.624;6.014;2023-05-07T22:17:02;10.38;;;8.27;;
23117;SDS011;11728;50.624;6.014;2023-05-07T22:22:23;10.98;;;8.57;;
23117;SDS011;11728;50.624;6.014;2023-05-07T22:27:44;14.88;;;9.55;;
23117;SDS011;11728;50.624;6.014;2023-05-07T22:33:04;13.60;;;9.15;;
23117;SDS011;11728;50.624;6.014;2023-05-07T22:38:25;17.42;;;9.07;;
23117;SDS011;11728;50.624;6.014;2023-05-07T22:43:46;15.05;;;9.00;;
23117;SDS011;11728;50.624;6.014;2023-05-07T22:49:07;10.75;;;8.95;;
23117;SDS011;11728;50.624;6.014;2023-05-07T22:54:29;12.95;;;9.32;;
23117;SDS011;11728;50.624;6.014;2023-05-07T22:59:56;10.77;;;9.13;;
23117;SDS011;11728;50.624;6.014;2023-05-07T23:05:17;10.02;;;8.73;;
23117;SDS011;11728;50.624;6.014;2023-05-07T23:10:38;11.80;;;8.80;;
23117;SDS011;11728;50.624;6.014;2023-05-07T23:15:58;13.07;;;10.57;;
23117;SDS011;11728;50.624;6.014;2023-05-07T23:21:19;16.85;;;11.75;;
23117;SDS011;11728;50.624;6.014;2023-05-07T23:26:40;67.68;;;12.38;;
23117;SDS011;11728;50.624;6.014;2023-05-07T23:32:01;82.50;;;13.02;;
23117;SDS011;11728;50.624;6.014;2023-05-07T23:37:22;50.80;;;12.55;;
23117;SDS011;11728;50.624;6.014;2023-05-07T23:42:43;18.00;;;14.10;;
23117;SDS011;11728;50.624;6.014;2023-05-07T23:48:04;36.25;;;16.35;;
23117;SDS011;11728;50.624;6.014;2023-05-07T23:53:25;142.20;;;19.98;;
23117;SDS011;11728;50.624;6.014;2023-05-07T23:58:46;55.35;;;18.05;;
